sensor_id;sensor_type;location;lat;lon;timestamp;pressure;altitude;pressure_sealevel;temperature;humidity
65054;BME280;51639;47.828;35.038;2023-09-19T00:04:14;100935.13;;;21.56;73.73
65054;BME280;51639;47.828;35.038;2023-09-19T00:19:16;100932.00;;;21.63;74.36
65054;BME280;51639;47.828;35.038;2023-09-19T00:34:18;100923.34;;;21.99;74.02
65054;BME280;51639;47.828;35.038;2023-09-19T00:49:22;100909.66;;;22.20;79.94
65054;BME280;51639;47.828;35.038;2023-09-19T01:04:24;100890.72;;;22.33;84.73
65054;BME280;51639;47.828;35.038;2023-09-19T01:20:08;100888.81;;;22.39;87.78
65054;BME280;51639;47.828;35.038;2023-09-19T01:35:14;100901.94;;;22.44;86.93
65054;BME280;51639;47.828;35.038;2023-09-19T01:50:38;100879.28;;;22.40;95.42
65054;BME280;51639;47.828;35.038;2023-09-19T02:05:51;100873.81;;;22.10;100.00
65054;BME280;51639;47.828;35.038;2023-09-19T02:20:55;100869.41;;;21.89;96.73
65054;BME280;51639;47.828;35.038;2023-09-19T02:35:58;100872.94;;;21.75;94.29
65054;BME280;51639;47.828;35.038;2023-09-19T02:51:01;100882.94;;;21.58;87.63
65054;BME280;51639;47.828;35.038;2023-09-19T03:06:03;100893.50;;;21.44;84.48
65054;BME280;51639;47.828;35.038;2023-09-19T03:21:05;100889.94;;;21.29;86.87
65054;BME280;51639;47.828;35.038;2023-09-19T03:36:08;100901.19;;;21.26;84.05
65054;BME280;51639;47.828;35.038;2023-09-19T03:51:10;100902.13;;;21.23;85.45
65054;BME280;51639;47.828;35.038;2023-09-19T04:06:14;100905.88;;;21.34;85.17
65054;BME280;51639;47.828;35.038;2023-09-19T04:21:17;100913.63;;;21.74;78.83
65054;BME280;51639;47.828;35.038;2023-09-19T04:36:21;100923.28;;;22.08;77.10
65054;BME280;51639;47.828;35.038;2023-09-19T04:51:36;100911.06;;;22.65;74.79
65054;BME280;51639;47.828;35.038;2023-09-19T05:06:38;100914.28;;;22.98;70.75
65054;BME280;51639;47.828;35.038;2023-09-19T05:21:40;100916.53;;;23.61;68.08
65054;BME280;51639;47.828;35.038;2023-09-19T05:36:42;100916.19;;;24.42;65.49
65054;BME280;51639;47.828;35.038;2023-09-19T05:51:45;100930.59;;;25.59;61.97
65054;BME280;51639;47.828;35.038;2023-09-19T06:06:47;100930.47;;;27.15;58.54
65054;BME280;51639;47.828;35.038;2023-09-19T06:21:50;100928.41;;;28.34;53.16
65054;BME280;51639;47.828;35.038;2023-09-19T06:36:52;100933.09;;;29.12;53.24
65054;BME280;51639;47.828;35.038;2023-09-19T06:51:55;100938.63;;;30.77;50.60
65054;BME280;51639;47.828;35.038;2023-09-19T07:06:57;100947.28;;;31.95;47.38
65054;BME280;51639;47.828;35.038;2023-09-19T07:21:59;100945.00;;;32.63;42.93
65054;BME280;51639;47.828;35.038;2023-09-19T07:37:04;100923.41;;;32.86;42.04
65054;BME280;51639;47.828;35.038;2023-09-19T07:52:06;100907.66;;;33.35;40.04
65054;BME280;51639;47.828;35.038;2023-09-19T08:07:09;100916.22;;;33.96;38.57
65054;BME280;51639;47.828;35.038;2023-09-19T08:22:11;100882.44;;;33.88;37.40
65054;BME280;51639;47.828;35.038;2023-09-19T08:37:13;100874.34;;;33.84;35.27
65054;BME280;51639;47.828;35.038;2023-09-19T08:52:20;100858.97;;;34.71;34.99
65054;BME280;51639;47.828;35.038;2023-09-19T09:07:25;100850.34;;;35.09;34.21
65054;BME280;51639;47.828;35.038;2023-09-19T09:22:27;100841.75;;;35.82;33.18
65054;BME280;51639;47.828;35.038;2023-09-19T09:37:29;100822.53;;;35.38;33.88
65054;BME280;51639;47.828;35.038;2023-09-19T09:52:44;100805.91;;;36.09;32.77
65054;BME280;51639;47.828;35.038;2023-09-19T10:07:47;100795.50;;;35.70;31.87
65054;BME280;51639;47.828;35.038;2023-09-19T10:22:53;100762.69;;;36.78;32.22
65054;BME280;51639;47.828;35.038;2023-09-19T10:38:00;100763.47;;;36.44;31.48
65054;BME280;51639;47.828;35.038;2023-09-19T10:53:06;100747.16;;;36.52;30.91
65054;BME280;51639;47.828;35.038;2023-09-19T11:08:10;100734.03;;;37.01;30.77
65054;BME280;51639;47.828;35.038;2023-09-19T11:53:52;100681.91;;;36.67;29.32
65054;BME280;51639;47.828;35.038;2023-09-19T12:08:55;100687.97;;;33.71;31.35
65054;BME280;51639;47.828;35.038;2023-09-19T12:39:06;100670.44;;;31.84;32.99
65054;BME280;51639;47.828;35.038;2023-09-19T12:54:11;100648.72;;;31.07;33.48
65054;BME280;51639;47.828;35.038;2023-09-19T13:09:13;100631.50;;;31.03;33.97
65054;BME280;51639;47.828;35.038;2023-09-19T13:24:22;100623.66;;;30.80;33.84
65054;BME280;51639;47.828;35.038;2023-09-19T13:39:27;100606.03;;;30.72;34.40
65054;BME280;51639;47.828;35.038;2023-09-19T13:54:34;100609.31;;;30.63;34.54
65054;BME280;51639;47.828;35.038;2023-09-19T14:09:36;100609.88;;;30.48;34.89
65054;BME280;51639;47.828;35.038;2023-09-19T14:24:38;100597.38;;;30.29;34.87
65054;BME280;51639;47.828;35.038;2023-09-19T14:39:42;100584.19;;;30.16;35.05
65054;BME280;51639;47.828;35.038;2023-09-19T14:54:50;100575.63;;;29.88;35.33
65054;BME280;51639;47.828;35.038;2023-09-19T15:09:52;100573.94;;;29.71;36.02
65054;BME280;51639;47.828;35.038;2023-09-19T15:24:54;100582.25;;;29.50;36.66
65054;BME280;51639;47.828;35.038;2023-09-19T15:39:58;100586.41;;;29.17;36.54
65054;BME280;51639;47.828;35.038;2023-09-19T15:55:02;100582.38;;;28.87;37.13
65054;BME280;51639;47.828;35.038;2023-09-19T16:10:05;100596.44;;;28.49;37.33
65054;BME280;51639;47.828;35.038;2023-09-19T16:25:07;100597.13;;;28.17;38.59
65054;BME280;51639;47.828;35.038;2023-09-19T16:40:13;100608.75;;;27.84;39.44
65054;BME280;51639;47.828;35.038;2023-09-19T16:55:15;100621.88;;;27.40;40.97
65054;BME280;51639;47.828;35.038;2023-09-19T17:10:24;100629.97;;;26.90;42.04
65054;BME280;51639;47.828;35.038;2023-09-19T17:25:34;100633.75;;;26.57;42.37
65054;BME280;51639;47.828;35.038;2023-09-19T17:40:42;100644.25;;;26.28;42.47
65054;BME280;51639;47.828;35.038;2023-09-19T17:55:44;100649.19;;;26.05;42.05
65054;BME280;51639;47.828;35.038;2023-09-19T18:10:48;100663.91;;;25.89;42.64
65054;BME280;51639;47.828;35.038;2023-09-19T18:25:58;100672.09;;;25.65;42.57
65054;BME280;51639;47.828;35.038;2023-09-19T18:41:00;100671.34;;;25.42;42.56
65054;BME280;51639;47.828;35.038;2023-09-19T18:56:07;100679.94;;;25.44;42.54
65054;BME280;51639;47.828;35.038;2023-09-19T19:11:11;100686.00;;;25.42;43.18
65054;BME280;51639;47.828;35.038;2023-09-19T19:26:16;100686.78;;;25.26;44.05
65054;BME280;51639;47.828;35.038;2023-09-19T19:41:19;100685.28;;;25.03;45.01
65054;BME280;51639;47.828;35.038;2023-09-19T19:56:21;100682.69;;;24.82;45.60
65054;BME280;51639;47.828;35.038;2023-09-19T20:11:24;100690.25;;;24.76;46.55
65054;BME280;51639;47.828;35.038;2023-09-19T20:26:33;100692.75;;;24.63;46.95
65054;BME280;51639;47.828;35.038;2023-09-19T20:41:36;100685.41;;;24.49;46.95
65054;BME280;51639;47.828;35.038;2023-09-19T20:56:38;100695.00;;;24.48;47.31
65054;BME280;51639;47.828;35.038;2023-09-19T21:11:40;100688.63;;;24.31;47.08
65054;BME280;51639;47.828;35.038;2023-09-19T21:26:43;100681.47;;;24.07;47.54
65054;BME280;51639;47.828;35.038;2023-09-19T21:41:47;100665.22;;;23.89;47.76
65054;BME280;51639;47.828;35.038;2023-09-19T21:56:49;100664.38;;;23.72;48.05
65054;BME280;51639;47.828;35.038;2023-09-19T22:11:51;100650.81;;;23.42;49.93
65054;BME280;51639;47.828;35.038;2023-09-19T22:26:53;100658.19;;;23.14;52.32
65054;BME280;51639;47.828;35.038;2023-09-19T22:41:55;100659.81;;;22.74;53.96
65054;BME280;51639;47.828;35.038;2023-09-19T22:57:13;100651.22;;;22.41;54.42
65054;BME280;51639;47.828;35.038;2023-09-19T23:12:15;100649.28;;;22.27;55.11
65054;BME280;51639;47.828;35.038;2023-09-19T23:27:21;100636.69;;;22.26;55.81
65054;BME280;51639;47.828;35.038;2023-09-19T23:42:28;100638.44;;;22.49;56.00
65054;BME280;51639;47.828;35.038;2023-09-19T23:57:30;100641.53;;;22.31;57.11
